Time;durP1;ratioP1;P1;durP2;ratioP2;P2;SDS_P1;SDS_P2;PMS_P1;PMS_P2;Temp;Humidity;BMP_temperature;BMP_pressure;BME280_temperature;BME280_humidity;BME280_pressure;Samples;Min_cycle;Max_cycle;Signal;HPM_P1;HPM_P2
2022/07/09 05:45:54;;;;;;;3.95;2.28;;;;;;;15.71;61.44;97727.22;5276872;23;20055;-80
2022/07/09 06:36:11;;;;;;;2.83;1.52;;;;;;;16.67;56.90;97727.66;4945323;29;20115;-79
2022/07/09 06:46:48;;;;;;;3.67;2.00;;;;;;;16.93;57.12;97726.22;5751445;23;20075;-80
2022/07/09 06:49:25;;;;;;;2.88;1.40;;;;;;;17.00;58.46;97722.59;4941338;29;20052;-79
2022/07/09 06:52:12;;;;;;;3.33;1.73;;;;;;;17.08;56.67;97727.72;4927611;29;20047;-81
2022/07/09 06:57:51;;;;;;;2.85;1.90;;;;;;;17.29;59.14;97725.97;4958899;28;20055;-82
2022/07/09 07:00:20;;;;;;;1.92;1.42;;;;;;;17.37;58.11;97717.09;4958020;28;20051;-82
2022/07/09 07:02:59;;;;;;;5.33;2.13;;;;;;;17.45;57.19;97715.09;5314950;23;20099;-80
2022/07/09 07:05:46;;;;;;;2.72;1.77;;;;;;;17.57;56.25;97717.97;4960945;29;20066;-77
2022/07/09 07:08:23;;;;;;;2.33;1.67;;;;;;;17.65;55.77;97717.78;4960264;29;20080;-77
2022/07/09 07:10:55;;;;;;;2.65;1.40;;;;;;;17.74;55.43;97718.41;4959950;29;20065;-79
2022/07/09 07:13:27;;;;;;;3.70;1.40;;;;;;;17.84;55.23;97724.16;4953575;29;20079;-80
2022/07/09 07:16:14;;;;;;;2.40;1.45;;;;;;;17.97;55.03;97718.06;4940680;29;20032;-80
2022/07/09 07:18:53;;;;;;;2.88;1.50;;;;;;;18.08;54.45;97720.13;4941835;29;20059;-78
2022/07/09 07:21:25;;;;;;;12.10;1.83;;;;;;;18.19;54.50;97712.59;4941345;29;20052;-79
2022/07/09 07:24:08;;;;;;;2.28;1.42;;;;;;;18.32;54.92;97717.88;4925814;29;20044;-79
2022/07/09 07:26:48;;;;;;;2.65;1.42;;;;;;;18.46;55.47;97705.50;4923868;29;20039;-81
2022/07/09 07:29:26;;;;;;;4.40;1.80;;;;;;;18.56;54.76;97705.88;4922545;29;20061;-78
2022/07/09 07:32:04;;;;;;;4.50;1.88;;;;;;;18.68;55.22;97703.44;4922952;29;20052;-78
2022/07/09 07:34:59;;;;;;;5.22;2.03;;;;;;;18.80;55.04;97707.06;4922768;29;20115;-79
2022/07/09 07:37:49;;;;;;;3.22;1.70;;;;;;;18.92;54.63;97708.06;4922560;29;20048;-78
2022/07/09 07:40:36;;;;;;;5.38;1.95;;;;;;;19.03;54.35;97703.19;4922569;29;20063;-77
2022/07/09 07:43:04;;;;;;;1.95;1.30;;;;;;;19.12;54.30;97707.19;4930286;29;20120;-80
2022/07/09 07:45:32;;;;;;;2.03;1.15;;;;;;;19.20;53.40;97709.63;4925377;29;20736;-78
2022/07/09 07:48:01;;;;;;;1.38;1.25;;;;;;;19.25;53.66;97709.78;4941252;28;20048;-81
2022/07/09 07:50:38;;;;;;;2.75;1.38;;;;;;;19.28;53.51;97709.38;4953956;28;20038;-79
2022/07/09 07:53:09;;;;;;;2.70;0.80;;;;;;;19.30;54.11;97701.22;4938163;29;20044;-75
2022/07/09 07:55:39;;;;;;;1.05;1.00;;;;;;;19.34;54.85;97710.38;4928190;29;20582;-75
2022/07/09 07:58:06;;;;;;;2.53;1.10;;;;;;;19.41;54.55;97700.56;4911945;29;20083;-76
2022/07/09 08:00:34;;;;;;;2.28;0.93;;;;;;;19.48;54.70;97705.81;4916634;29;20139;-77
2022/07/09 09:24:01;;;;;;;2.67;0.70;;;;;;;21.85;46.03;97642.94;5467278;23;20047;-82
2022/07/09 09:29:15;;;;;;;1.88;0.60;;;;;;;21.99;46.72;97637.16;5396831;23;20050;-79
2022/07/09 09:31:54;;;;;;;1.05;0.63;;;;;;;22.07;46.17;97646.66;4960286;28;20423;-79
2022/07/09 10:33:40;;;;;;;2.33;1.00;;;;;;;23.17;41.90;97610.47;5068905;23;20055;-81
2022/07/09 10:36:18;;;;;;;1.25;0.77;;;;;;;23.09;41.98;97610.03;4959325;29;20127;-79
2022/07/09 10:41:33;;;;;;;1.13;0.80;;;;;;;22.93;43.14;97611.56;4960238;28;20048;-78
2022/07/09 10:44:21;;;;;;;1.20;0.80;;;;;;;22.86;43.13;97614.34;4961405;29;20067;-78
2022/07/09 10:47:01;;;;;;;1.65;0.52;;;;;;;22.79;42.83;97616.34;4961586;28;20055;-79
2022/07/09 10:49:45;;;;;;;;;;;;;;;22.76;43.41;97616.81;4961763;29;20039;-79
2022/07/09 10:52:32;;;;;;;1.75;0.60;;;;;;;22.71;43.81;97612.19;4961277;28;19939;-79
2022/07/09 12:03:07;;;;;;;0.95;0.75;;;;;;;23.08;42.25;97558.66;5611677;23;20521;-89
2022/07/09 12:05:43;;;;;;;1.33;0.45;;;;;;;23.12;42.08;97551.03;4945279;29;20056;-87
2022/07/09 12:08:15;;;;;;;2.25;0.50;;;;;;;23.15;42.35;97550.53;4944575;29;20486;-85
2022/07/09 12:10:46;;;;;;;1.27;0.70;;;;;;;23.18;42.32;97544.75;4943521;29;20128;-89
2022/07/09 12:13:16;;;;;;;1.95;0.57;;;;;;;23.21;42.78;97539.72;4943617;29;20048;-85
2022/07/09 14:36:53;;;;;;;1.33;1.00;;;;;;;23.39;40.23;97408.25;4965552;29;20059;-92
2022/07/09 14:39:37;;;;;;;2.42;0.73;;;;;;;23.38;40.11;97406.63;4966277;29;20399;-91
2022/07/09 14:42:22;;;;;;;1.27;0.70;;;;;;;23.37;40.29;97399.69;4948735;29;20103;-90
2022/07/09 14:45:04;;;;;;;0.55;0.50;;;;;;;23.37;40.62;97393.56;4946395;29;20055;-86
2022/07/09 14:47:45;;;;;;;2.22;0.68;;;;;;;23.39;39.99;97388.81;4946759;29;20067;-90
2022/07/09 14:50:30;;;;;;;0.70;0.60;;;;;;;23.39;40.02;97384.28;4946031;29;20055;-85
2022/07/09 14:53:21;;;;;;;1.10;0.60;;;;;;;23.44;40.32;97389.69;4946780;29;20051;-91
2022/07/09 14:56:03;;;;;;;1.75;0.52;;;;;;;23.45;40.36;97380.63;4947780;29;20138;-89
2022/07/09 14:58:44;;;;;;;0.93;0.63;;;;;;;23.45;40.18;97385.97;4947196;29;20058;-90
2022/07/09 15:01:29;;;;;;;1.52;0.57;;;;;;;23.45;40.17;97380.63;4946778;29;20051;-87
2022/07/09 15:06:50;;;;;;;1.52;0.50;;;;;;;23.49;40.13;97385.50;4944387;29;20063;-88
2022/07/09 15:09:49;;;;;;;0.65;0.47;;;;;;;23.51;40.33;97386.06;4945385;29;20052;-87
2022/07/09 15:12:25;;;;;;;0.43;0.43;;;;;;;23.51;39.80;97383.41;4944193;29;20055;-87
2022/07/09 15:15:02;;;;;;;0.55;0.55;;;;;;;23.50;40.51;97377.25;4943663;29;20111;-89
2022/07/09 15:17:31;;;;;;;1.73;0.63;;;;;;;23.52;40.27;97379.66;4944623;29;20554;-79
2022/07/09 15:20:03;;;;;;;2.30;0.70;;;;;;;23.51;40.03;97383.41;4945809;29;20395;-87
2022/07/09 15:22:56;;;;;;;1.65;0.50;;;;;;;23.52;40.71;97379.66;4946068;29;20131;-90
2022/07/09 15:25:28;;;;;;;1.42;0.80;;;;;;;23.52;40.29;97374.34;4943495;29;20047;-85
2022/07/09 15:27:58;;;;;;;2.85;0.88;;;;;;;23.51;40.29;97368.22;4938721;29;20056;-80
2022/07/09 15:30:26;;;;;;;1.23;0.50;;;;;;;23.50;40.07;97365.78;4943014;29;20513;-82
2022/07/09 15:32:54;;;;;;;1.52;0.73;;;;;;;23.49;39.80;97356.19;4934012;29;20044;-81
2022/07/09 15:35:22;;;;;;;1.65;0.70;;;;;;;23.49;39.58;97362.31;4931063;29;20108;-86
2022/07/09 15:37:50;;;;;;;2.58;0.90;;;;;;;23.51;39.87;97362.09;4934288;29;20075;-86
2022/07/09 15:40:19;;;;;;;1.35;0.90;;;;;;;23.50;39.64;97361.25;4940279;29;20106;-83
2022/07/09 15:42:48;;;;;;;0.75;0.75;;;;;;;23.52;39.39;97355.69;4939236;29;20058;-84
2022/07/09 15:45:18;;;;;;;1.45;0.90;;;;;;;23.53;39.67;97357.31;4930672;29;20116;-83
2022/07/09 15:47:45;;;;;;;3.25;1.00;;;;;;;23.54;39.82;97351.72;4921045;29;20056;-82
2022/07/09 15:50:20;;;;;;;2.92;1.10;;;;;;;23.55;39.70;97352.53;4933666;29;20094;-84
2022/07/09 15:52:48;;;;;;;1.65;0.80;;;;;;;23.55;39.62;97355.19;4925625;29;20044;-85
2022/07/09 15:55:16;;;;;;;1.25;0.90;;;;;;;23.54;39.78;97351.72;4930206;29;20075;-82
2022/07/09 15:57:44;;;;;;;1.38;1.00;;;;;;;23.54;40.29;97340.28;4932898;29;20603;-85
2022/07/09 16:00:13;;;;;;;1.08;0.80;;;;;;;23.55;39.96;97347.22;4946155;29;20056;-85
2022/07/09 16:02:41;;;;;;;1.52;0.77;;;;;;;23.55;40.06;97339.22;4945194;29;20115;-83
2022/07/09 16:05:11;;;;;;;3.80;0.98;;;;;;;23.58;40.28;97342.19;4927881;29;20048;-85
2022/07/09 16:07:40;;;;;;;1.55;1.05;;;;;;;23.60;40.20;97337.44;4945703;29;20549;-86
2022/07/09 16:10:08;;;;;;;2.08;1.27;;;;;;;23.62;40.45;97342.53;4946483;29;20118;-82
2022/07/09 16:12:50;;;;;;;2.17;1.35;;;;;;;23.59;40.42;97335.84;4945225;29;20047;-82
2022/07/09 16:15:19;;;;;;;2.50;1.20;;;;;;;23.57;40.48;97335.28;4947242;29;20071;-87
2022/07/09 16:17:47;;;;;;;1.45;1.30;;;;;;;23.53;40.56;97333.34;4951329;29;20095;-86
2022/07/09 16:20:24;;;;;;;3.05;1.40;;;;;;;23.51;41.21;97324.81;4950095;29;20064;-88
2022/07/09 16:22:52;;;;;;;2.88;1.55;;;;;;;23.48;40.75;97334.06;4949536;29;20079;-88
2022/07/09 16:25:19;;;;;;;3.10;1.30;;;;;;;23.45;41.43;97332.72;4949907;29;20072;-85
2022/07/09 16:27:48;;;;;;;1.92;1.35;;;;;;;23.44;41.40;97336.44;4949370;29;20060;-88
2022/07/09 16:30:16;;;;;;;2.53;1.65;;;;;;;23.43;41.62;97334.81;4937036;29;20047;-88
2022/07/09 16:32:45;;;;;;;2.67;1.30;;;;;;;23.44;41.57;97333.78;4936776;29;20080;-82
2022/07/09 16:35:13;;;;;;;1.63;1.33;;;;;;;23.43;42.26;97334.81;4945165;29;20052;-82
2022/07/09 16:37:41;;;;;;;2.22;1.92;;;;;;;23.41;42.16;97331.59;4948420;29;20052;-87
2022/07/09 16:40:10;;;;;;;1.40;1.30;;;;;;;23.38;42.03;97334.75;4948850;29;20139;-87
2022/07/09 16:42:38;;;;;;;3.08;1.90;;;;;;;23.35;42.17;97334.44;4947600;29;20060;-84
2022/07/09 16:45:07;;;;;;;2.13;1.75;;;;;;;23.34;42.69;97332.84;4948428;29;20063;-87
2022/07/09 16:47:35;;;;;;;2.38;1.58;;;;;;;23.32;42.62;97333.06;4947253;29;20052;-87
2022/07/09 16:50:04;;;;;;;2.33;1.63;;;;;;;23.29;42.53;97332.78;4948867;29;20059;-86
2022/07/09 16:52:34;;;;;;;1.60;1.50;;;;;;;23.28;42.42;97331.94;4949745;29;20047;-84
2022/07/09 16:55:02;;;;;;;1.85;1.60;;;;;;;23.27;42.46;97324.22;4947165;29;20063;-87
2022/07/09 16:57:30;;;;;;;3.42;1.95;;;;;;;23.24;42.77;97325.50;4947361;29;20080;-87
2022/07/09 16:59:58;;;;;;;2.70;1.98;;;;;;;23.22;42.89;97322.28;4946852;29;20494;-85
2022/07/09 17:02:39;;;;;;;4.00;1.90;;;;;;;23.19;43.08;97325.44;4946376;29;20494;-86
2022/07/09 17:05:12;;;;;;;3.22;2.10;;;;;;;23.16;43.31;97312.63;4946117;29;20506;-84
2022/07/09 17:07:40;;;;;;;3.95;2.00;;;;;;;23.15;43.15;97305.69;4947528;29;20115;-84
2022/07/09 17:10:08;;;;;;;2.85;1.85;;;;;;;23.14;43.67;97306.75;4947091;29;20064;-84
2022/07/09 17:12:37;;;;;;;3.45;1.90;;;;;;;23.14;43.43;97309.41;4947716;29;20067;-83
2022/07/09 17:15:07;;;;;;;3.25;1.80;;;;;;;23.12;43.93;97306.97;4947368;29;20051;-83
2022/07/09 17:17:35;;;;;;;2.25;2.05;;;;;;;23.11;43.60;97304.56;4949983;29;20056;-82
2022/07/09 17:20:05;;;;;;;1.90;1.70;;;;;;;23.09;43.38;97290.69;4954013;29;20118;-87
2022/07/09 17:22:34;;;;;;;2.97;1.83;;;;;;;23.06;43.78;97288.53;4961393;29;20062;-83
2022/07/09 17:25:01;;;;;;;3.22;1.77;;;;;;;23.03;43.03;97282.66;4940332;29;20076;-86
2022/07/09 17:27:29;;;;;;;1.50;1.40;;;;;;;23.01;42.80;97284.75;4931897;29;20093;-81
2022/07/09 17:29:57;;;;;;;5.68;1.73;;;;;;;23.00;42.38;97280.50;4948027;29;20079;-83
2022/07/09 17:32:24;;;;;;;3.40;1.80;;;;;;;22.98;42.59;97279.91;4947720;29;20077;-83
2022/07/09 17:34:52;;;;;;;1.88;1.45;;;;;;;22.98;42.96;97284.38;4946374;29;20078;-83
2022/07/09 17:37:20;;;;;;;2.15;1.27;;;;;;;22.98;42.76;97289.72;4958399;29;20051;-82
2022/07/09 17:39:49;;;;;;;4.57;1.65;;;;;;;22.96;42.75;97282.00;4951480;29;20573;-84
2022/07/09 17:42:17;;;;;;;2.13;1.60;;;;;;;22.93;42.81;97282.47;4945611;29;20059;-81
2022/07/09 17:44:44;;;;;;;2.08;1.73;;;;;;;22.91;42.61;97289.09;4945013;29;20040;-80
2022/07/09 17:47:12;;;;;;;2.42;1.70;;;;;;;22.89;42.73;97286.66;4944870;29;20047;-85
2022/07/09 17:49:46;;;;;;;2.83;1.67;;;;;;;22.89;43.13;97280.53;4945543;29;20059;-85
2022/07/09 17:52:14;;;;;;;2.08;1.55;;;;;;;22.87;43.09;97282.63;4949723;28;20079;-88
2022/07/09 17:54:46;;;;;;;2.53;1.63;;;;;;;22.86;43.43;97281.84;4967201;29;20051;-87
2022/07/09 17:57:15;;;;;;;1.85;1.45;;;;;;;22.86;43.34;97284.50;4972765;29;20051;-86
2022/07/09 17:59:43;;;;;;;2.63;1.65;;;;;;;22.85;43.52;97280.25;4956127;29;20518;-86
2022/07/09 18:02:10;;;;;;;1.55;1.45;;;;;;;22.83;43.57;97282.34;4953170;29;20047;-85
2022/07/09 18:04:38;;;;;;;2.58;1.58;;;;;;;22.82;44.07;97276.19;4952643;29;20058;-86
2022/07/09 18:07:06;;;;;;;4.07;1.92;;;;;;;22.82;44.47;97280.72;4952606;29;20055;-86
2022/07/09 18:09:34;;;;;;;2.13;1.70;;;;;;;22.81;44.17;97277.25;4951846;29;20092;-83
2022/07/09 18:12:01;;;;;;;1.60;1.50;;;;;;;22.80;44.74;97280.94;4950133;29;20111;-82
2022/07/09 18:14:33;;;;;;;2.75;1.40;;;;;;;22.78;44.52;97279.56;4948683;29;20422;-82
2022/07/09 18:17:01;;;;;;;2.63;1.38;;;;;;;22.76;44.78;97271.03;4949703;29;20051;-81
2022/07/09 18:19:28;;;;;;;1.65;1.20;;;;;;;22.73;44.91;97271.53;4933242;29;20048;-80
2022/07/09 18:21:56;;;;;;;1.92;1.63;;;;;;;22.69;45.43;97273.88;4935237;29;20056;-79
2022/07/09 18:24:24;;;;;;;4.13;1.95;;;;;;;22.65;45.27;97275.38;4945679;29;20131;-78
2022/07/09 18:26:51;;;;;;;2.53;1.92;;;;;;;22.62;45.57;97267.91;4945336;29;20103;-80
2022/07/09 18:29:19;;;;;;;1.50;1.38;;;;;;;22.60;45.33;97268.16;4941399;29;20056;-79
2022/07/09 18:31:48;;;;;;;3.72;1.60;;;;;;;22.59;45.76;97263.09;4944354;29;20066;-78
2022/07/09 18:34:16;;;;;;;2.90;1.80;;;;;;;22.56;45.85;97274.19;4944914;29;20156;-80
2022/07/09 18:36:43;;;;;;;3.85;1.27;;;;;;;22.54;45.86;97269.13;4946014;29;20055;-83
2022/07/09 18:39:13;;;;;;;2.40;1.73;;;;;;;22.52;46.14;97276.53;4948443;29;20051;-82
2022/07/09 18:41:42;;;;;;;2.25;1.65;;;;;;;22.49;46.14;97274.34;4947888;29;20067;-82
2022/07/09 18:44:10;;;;;;;3.38;1.70;;;;;;;22.47;45.89;97271.13;4948391;29;20115;-81
2022/07/09 18:46:37;;;;;;;4.72;1.67;;;;;;;22.45;45.83;97272.41;4949174;29;20403;-82
2022/07/09 18:49:07;;;;;;;2.03;1.50;;;;;;;22.42;46.12;97273.72;4948831;29;20063;-80
2022/07/09 18:51:35;;;;;;;2.08;1.42;;;;;;;22.40;46.29;97265.97;4948981;29;20059;-81
2022/07/09 18:54:02;;;;;;;2.22;1.27;;;;;;;22.36;46.26;97267.50;4947978;29;20052;-83
2022/07/09 18:56:30;;;;;;;1.52;1.42;;;;;;;22.33;46.88;97260.00;4949096;29;20525;-85
2022/07/09 18:58:58;;;;;;;2.33;1.58;;;;;;;22.30;46.40;97262.34;4948264;29;20052;-79
2022/07/09 19:01:25;;;;;;;3.22;1.58;;;;;;;22.26;46.32;97262.03;4948255;29;20084;-80
2022/07/09 19:03:53;;;;;;;2.92;1.80;;;;;;;22.25;46.52;97264.91;4948456;29;20490;-83
2022/07/09 19:06:22;;;;;;;2.50;1.60;;;;;;;22.21;46.78;97265.38;4947556;29;20482;-87
2022/07/09 19:08:50;;;;;;;1.48;1.38;;;;;;;22.22;47.11;97271.53;4951093;29;20043;-88
2022/07/09 19:11:21;;;;;;;1.63;1.52;;;;;;;22.19;46.63;97270.13;4959343;29;20055;-88
2022/07/09 19:13:55;;;;;;;1.48;1.38;;;;;;;22.16;47.23;97272.44;4955687;29;20525;-87
2022/07/09 19:16:23;;;;;;;3.03;1.92;;;;;;;22.12;46.82;97266.00;4951205;29;20096;-88
2022/07/09 19:18:51;;;;;;;1.63;1.52;;;;;;;22.09;46.86;97267.28;4933267;29;20058;-89
2022/07/09 19:21:19;;;;;;;3.42;2.08;;;;;;;22.05;47.04;97270.66;4948383;29;20557;-88
2022/07/09 19:23:48;;;;;;;1.88;1.63;;;;;;;22.01;46.99;97265.00;4947991;29;20066;-87
2022/07/09 19:26:16;;;;;;;2.65;1.83;;;;;;;22.01;47.49;97270.31;4948992;29;20035;-83
2022/07/09 19:28:44;;;;;;;2.97;1.75;;;;;;;22.00;47.49;97271.38;4947597;29;20250;-83
2022/07/09 19:34:00;;;;;;;3.40;1.95;;;;;;;21.94;47.75;97280.28;4950477;29;20086;-85
2022/07/09 19:36:27;;;;;;;2.08;1.60;;;;;;;21.91;47.85;97283.41;4944225;29;20072;-86
2022/07/09 19:38:56;;;;;;;5.72;1.65;;;;;;;21.88;47.72;97291.88;4944441;29;20090;-82
2022/07/09 19:41:24;;;;;;;3.22;1.67;;;;;;;21.86;47.80;97285.97;4944149;29;20051;-86
2022/07/09 19:43:52;;;;;;;1.77;1.67;;;;;;;21.85;48.78;97287.03;4945383;29;20498;-86
2022/07/09 19:46:21;;;;;;;2.25;1.33;;;;;;;21.83;48.20;97289.91;4945964;29;20063;-85
2022/07/09 19:48:50;;;;;;;1.92;1.70;;;;;;;21.81;48.15;97287.50;4945988;29;20043;-84
2022/07/09 19:51:19;;;;;;;1.98;1.63;;;;;;;21.83;47.94;97297.09;4945660;29;20047;-85
2022/07/09 19:53:46;;;;;;;3.92;1.60;;;;;;;21.83;47.77;97291.78;4946410;29;20052;-85
2022/07/09 19:56:16;;;;;;;1.70;1.60;;;;;;;21.83;48.15;97299.75;4945355;29;20052;-84
2022/07/09 19:58:44;;;;;;;2.03;1.92;;;;;;;21.83;48.87;97299.75;4944036;29;20379;-80
2022/07/09 20:01:11;;;;;;;4.32;2.20;;;;;;;21.84;50.48;97298.69;4943295;29;20056;-78
2022/07/09 20:03:39;;;;;;;2.80;2.47;;;;;;;21.83;54.25;97300.53;4942382;29;20111;-82
2022/07/09 20:06:08;;;;;;;3.20;1.80;;;;;;;21.79;50.96;97296.75;4943245;29;20047;-78
2022/07/09 20:08:36;;;;;;;4.70;2.70;;;;;;;21.70;55.58;97300.81;4939897;29;20074;-78
2022/07/09 20:11:05;;;;;;;4.70;3.05;;;;;;;21.58;55.85;97306.16;4944379;29;20517;-84
2022/07/09 20:13:36;;;;;;;3.28;2.60;;;;;;;21.49;56.15;97310.22;4929073;29;20047;-81
2022/07/09 20:16:12;;;;;;;3.50;2.90;;;;;;;21.38;55.52;97309.16;4941314;29;20058;-83
2022/07/09 20:18:43;;;;;;;3.50;3.20;;;;;;;21.31;54.93;97305.84;4941352;29;20086;-82
2022/07/09 20:21:19;;;;;;;3.50;3.05;;;;;;;21.25;57.93;97310.22;4944266;29;20419;-82
2022/07/09 20:23:48;;;;;;;4.30;3.40;;;;;;;21.18;57.63;97309.53;4945214;29;20047;-80
2022/07/09 20:26:16;;;;;;;3.67;2.72;;;;;;;21.12;57.48;97313.09;4945963;29;20062;-83
2022/07/09 20:28:45;;;;;;;3.35;2.45;;;;;;;21.05;56.53;97315.06;4946824;29;20052;-81
2022/07/09 20:31:12;;;;;;;3.17;2.13;;;;;;;21.02;53.20;97315.56;4944936;29;20051;-83
2022/07/09 20:33:40;;;;;;;2.40;1.70;;;;;;;20.97;52.16;97311.75;4944051;29;20048;-84
2022/07/09 20:36:10;;;;;;;3.42;2.20;;;;;;;20.97;51.54;97317.03;4943712;29;20522;-83
2022/07/09 20:38:38;;;;;;;1.70;1.60;;;;;;;20.98;51.00;97325.81;4942080;29;20059;-81
2022/07/09 20:41:06;;;;;;;3.15;1.80;;;;;;;20.96;50.62;97315.41;4941845;29;20063;-81
2022/07/09 20:43:34;;;;;;;2.05;1.60;;;;;;;20.93;51.08;97318.53;4942165;29;20099;-82
2022/07/09 20:46:03;;;;;;;1.73;1.55;;;;;;;20.91;49.72;97325.91;4941576;29;20054;-83
2022/07/09 20:48:31;;;;;;;1.58;1.42;;;;;;;20.88;49.82;97322.91;4944953;29;20055;-83
2022/07/09 20:50:58;;;;;;;1.75;1.65;;;;;;;20.84;49.81;97317.28;4947170;29;20052;-85
2022/07/09 20:53:26;;;;;;;3.83;1.83;;;;;;;20.81;49.78;97320.38;4947920;29;20130;-86
2022/07/09 20:55:53;;;;;;;1.95;1.77;;;;;;;20.79;49.71;97317.13;4946916;29;20111;-83
2022/07/09 20:58:21;;;;;;;2.17;1.98;;;;;;;20.74;49.79;97320.47;4946661;29;20126;-84
2022/07/09 21:00:49;;;;;;;1.70;1.60;;;;;;;20.67;49.86;97325.09;4945525;29;20117;-83
2022/07/09 21:03:19;;;;;;;2.40;1.88;;;;;;;20.62;50.09;97329.44;4945370;29;20079;-83
2022/07/09 21:05:47;;;;;;;3.30;2.03;;;;;;;20.55;49.98;97335.66;4944933;29;20083;-81
2022/07/09 21:08:14;;;;;;;2.90;2.10;;;;;;;20.53;52.02;97335.06;4945007;29;20066;-82
2022/07/09 21:10:42;;;;;;;1.77;1.67;;;;;;;20.49;50.69;97328.59;4943520;29;20147;-87
2022/07/09 21:13:09;;;;;;;3.67;1.90;;;;;;;20.45;51.50;97329.28;4950144;29;20056;-86
2022/07/09 21:15:37;;;;;;;2.15;1.85;;;;;;;20.39;52.39;97328.34;4949487;29;20055;-88
2022/07/09 21:20:52;;;;;;;2.90;2.17;;;;;;;20.31;53.40;97341.91;4948026;29;20066;-85
2022/07/09 21:23:20;;;;;;;4.57;1.85;;;;;;;20.27;52.10;97340.72;4948494;29;20063;-84
2022/07/09 21:25:47;;;;;;;3.17;1.70;;;;;;;20.24;51.76;97344.63;4948235;29;20514;-85
2022/07/09 21:28:15;;;;;;;3.25;1.88;;;;;;;20.21;51.66;97339.00;4947337;29;20055;-84
2022/07/09 21:30:43;;;;;;;3.08;1.73;;;;;;;20.15;51.83;97338.84;4947025;29;20062;-81
2022/07/09 21:33:10;;;;;;;2.38;1.80;;;;;;;20.12;52.07;97334.00;4947287;29;20052;-84
2022/07/09 21:35:38;;;;;;;2.25;1.73;;;;;;;20.09;52.27;97334.44;4947220;29;20418;-85
2022/07/09 21:38:07;;;;;;;2.75;1.90;;;;;;;20.05;54.54;97343.91;4945962;29;20477;-82
2022/07/09 21:40:34;;;;;;;2.80;1.98;;;;;;;20.03;53.81;97351.25;4945477;29;20054;-84
2022/07/09 21:43:02;;;;;;;2.00;1.70;;;;;;;20.01;53.98;97348.03;4945776;29;20486;-82
2022/07/09 21:45:30;;;;;;;3.58;1.88;;;;;;;20.00;54.19;97354.34;4945283;29;20205;-82
2022/07/09 21:47:58;;;;;;;2.10;1.90;;;;;;;19.98;53.64;97352.94;4947044;29;20051;-84
2022/07/09 21:50:26;;;;;;;2.15;1.80;;;;;;;19.92;53.29;97358.09;4947560;29;20055;-85
2022/07/09 21:52:53;;;;;;;1.90;1.63;;;;;;;19.89;53.74;97365.69;4947610;29;20091;-84
2022/07/09 21:55:22;;;;;;;2.80;2.30;;;;;;;19.86;54.74;97366.13;4947026;29;20051;-85
2022/07/09 21:57:50;;;;;;;2.90;2.30;;;;;;;19.84;55.63;97362.91;4946132;29;20052;-84
2022/07/09 22:00:20;;;;;;;2.22;2.10;;;;;;;19.78;56.42;97359.28;4946322;29;20484;-82
2022/07/09 22:02:47;;;;;;;3.88;2.58;;;;;;;19.69;57.45;97358.78;4950639;29;20086;-90
2022/07/09 22:05:16;;;;;;;2.40;2.10;;;;;;;19.64;58.62;97353.31;4954244;29;20052;-89
2022/07/09 22:07:44;;;;;;;2.83;2.63;;;;;;;19.59;58.94;97358.47;4947562;29;20051;-90
2022/07/09 22:10:13;;;;;;;4.80;2.90;;;;;;;19.54;59.07;97359.09;4946462;29;20470;-91
2022/07/09 22:12:43;;;;;;;3.65;2.40;;;;;;;19.50;59.61;97354.47;4947087;29;20051;-88
2022/07/09 22:15:11;;;;;;;2.70;2.50;;;;;;;19.45;59.81;97346.41;4946444;29;20075;-90
2022/07/09 22:17:39;;;;;;;2.60;2.40;;;;;;;19.39;61.87;97344.63;4945999;29;20099;-89
2022/07/09 22:20:09;;;;;;;3.25;2.40;;;;;;;19.34;61.38;97347.94;4945155;29;20110;-89
2022/07/09 22:22:37;;;;;;;3.03;2.83;;;;;;;19.31;61.21;97341.25;4946058;29;20056;-85
2022/07/09 22:25:05;;;;;;;5.00;2.88;;;;;;;19.29;60.95;97343.31;4945542;29;20095;-87
2022/07/09 22:27:38;;;;;;;2.75;2.55;;;;;;;19.28;62.42;97343.50;4944732;29;20477;-87
2022/07/09 22:30:08;;;;;;;3.00;2.33;;;;;;;19.27;61.99;97332.13;4944634;29;20120;-87
2022/07/09 22:32:37;;;;;;;3.45;2.83;;;;;;;19.24;63.08;97332.59;4946154;29;20474;-89
2022/07/09 22:35:05;;;;;;;2.88;2.55;;;;;;;19.23;63.20;97330.94;4945709;29;21170;-86
2022/07/09 22:37:33;;;;;;;2.38;2.22;;;;;;;19.26;63.25;97329.69;4945288;29;20055;-87
2022/07/09 22:40:01;;;;;;;2.78;2.58;;;;;;;19.28;63.46;97323.16;4944778;29;20060;-86
2022/07/09 22:42:32;;;;;;;3.33;3.03;;;;;;;19.27;63.10;97320.75;4945641;29;20514;-87
2022/07/09 22:45:00;;;;;;;2.58;2.35;;;;;;;19.26;63.29;97325.25;4945823;29;20067;-89
2022/07/09 22:47:29;;;;;;;3.72;2.53;;;;;;;19.28;63.78;97322.34;4946756;29;20132;-90
2022/07/09 22:49:57;;;;;;;2.63;2.42;;;;;;;19.28;63.15;97311.78;4946213;29;20055;-87
2022/07/09 22:52:25;;;;;;;2.80;2.60;;;;;;;19.26;63.45;97306.72;4944859;29;20047;-89
2022/07/09 22:54:53;;;;;;;3.15;2.85;;;;;;;19.24;63.04;97310.59;4945560;29;20055;-87
2022/07/09 22:57:21;;;;;;;3.13;2.80;;;;;;;19.20;64.16;97318.19;4944522;29;20107;-84
2022/07/09 22:59:49;;;;;;;3.08;2.83;;;;;;;19.17;64.61;97315.94;4944628;29;20566;-86
2022/07/09 23:02:17;;;;;;;4.30;3.03;;;;;;;19.12;65.01;97318.44;4944982;29;20114;-88
2022/07/09 23:04:46;;;;;;;3.88;3.50;;;;;;;19.07;66.60;97310.38;4944522;29;20055;-86
2022/07/09 23:08:54;;;;;;;4.53;3.10;;;;;;;19.05;67.04;97315.06;4943732;29;20076;-88
2022/07/09 23:10:02;;;;;;;4.78;3.47;;;;;;;19.05;67.36;97315.06;4943713;29;20052;-87
2022/07/09 23:12:30;;;;;;;3.75;3.38;;;;;;;19.03;66.25;97306.53;4944430;29;20107;-86
2022/07/09 23:14:58;;;;;;;3.25;2.85;;;;;;;18.96;65.95;97303.13;4944817;29;20055;-84
2022/07/09 23:17:26;;;;;;;2.88;2.67;;;;;;;18.89;66.02;97314.59;4945466;29;20487;-89
2022/07/09 23:19:55;;;;;;;3.05;2.85;;;;;;;18.82;66.54;97319.13;4944059;29;20067;-86
2022/07/09 23:22:23;;;;;;;2.65;2.25;;;;;;;18.79;66.39;97313.47;4943762;29;20052;-83
2022/07/09 23:24:53;;;;;;;2.97;2.78;;;;;;;18.79;66.33;97310.84;4943576;29;20055;-85
2022/07/09 23:27:27;;;;;;;3.95;2.88;;;;;;;18.75;66.49;97318.34;4943867;29;20476;-84
2022/07/09 23:29:55;;;;;;;4.43;2.60;;;;;;;18.76;67.27;97317.34;4944256;29;20059;-85
2022/07/09 23:32:22;;;;;;;2.92;2.65;;;;;;;18.79;66.90;97308.19;4943687;29;20044;-88
2022/07/09 23:34:50;;;;;;;2.80;2.60;;;;;;;18.82;66.51;97313.84;4942778;29;20062;-84
2022/07/09 23:37:19;;;;;;;2.95;2.70;;;;;;;18.85;66.91;97308.13;4944277;29;20060;-85
2022/07/09 23:39:50;;;;;;;3.00;2.80;;;;;;;18.85;66.14;97304.69;4943985;29;20052;-83
2022/07/09 23:42:18;;;;;;;3.33;3.03;;;;;;;18.82;66.26;97305.91;4943465;29;20067;-85
2022/07/09 23:44:46;;;;;;;4.70;3.53;;;;;;;18.77;66.44;97299.63;4944327;29;20080;-90
2022/07/09 23:47:14;;;;;;;5.45;3.42;;;;;;;18.69;65.90;97301.53;4945465;29;20074;-86
2022/07/09 23:49:42;;;;;;;3.83;2.70;;;;;;;18.67;66.54;97300.09;4946567;29;20122;-87
2022/07/09 23:52:10;;;;;;;3.33;3.00;;;;;;;18.66;66.16;97304.59;4945517;29;20055;-88
2022/07/09 23:54:39;;;;;;;3.25;2.95;;;;;;;18.66;66.36;97296.66;4945101;29;20052;-87
2022/07/09 23:57:07;;;;;;;3.40;3.08;;;;;;;18.67;66.65;97300.09;4944366;29;20056;-85
2022/07/09 23:59:35;;;;;;;3.78;2.97;;;;;;;18.65;66.50;97297.69;4944440;29;20502;-85
